CFG2WR LPMA-LPMA
Flight info
| Callsign | CFG2WR |
|---|---|
| Flight time | 1h 7m |
| Altitude | 8000 |
| Route | MA550 DCT MA552 DCT MA554 DCT MA522 DCT MA520 DCT MA504 DCT MA502 |
| Aircraft | A339/H-SADE1E2E3GHIJ3J5M1P2RWXY/LB2D1 |
Departure
| Time | 2026-05-01 14:25 |
|---|---|
| Airport | Cristiano Ronaldo International Airport (LPMA) |
Arrival
| Time | 2026-05-01 15:32 |
|---|---|
| Airport | Cristiano Ronaldo International Airport (LPMA) |
| Time | Latitude | Longitude | Altitude | Speed | Heading |
|---|---|---|---|---|---|
| 2026-05-01 13:47 | 32.69488 | -16.77476 | 194 ft | 0 kts | 138° |
| 2026-05-01 14:17 | 32.69498 | -16.77486 | 197 ft | 2 kts | 138° |
| 2026-05-01 14:17 | 32.69509 | -16.77498 | 197 ft | 2 kts | 139° |
| 2026-05-01 14:17 | 32.69521 | -16.77510 | 197 ft | 2 kts | 138° |
| 2026-05-01 14:18 | 32.69532 | -16.77521 | 197 ft | 2 kts | 154° |
| 2026-05-01 14:18 | 32.69546 | -16.77525 | 197 ft | 2 kts | 187° |
| 2026-05-01 14:18 | 32.69561 | -16.77520 | 198 ft | 2 kts | 215° |
| 2026-05-01 14:18 | 32.69565 | -16.77516 | 198 ft | 0 kts | 225° |
| 2026-05-01 14:19 | 32.69569 | -16.77512 | 198 ft | 0 kts | 226° |
| 2026-05-01 14:21 | 32.69535 | -16.77552 | 197 ft | 15 kts | 224° |
| 2026-05-01 14:21 | 32.69450 | -16.77654 | 197 ft | 17 kts | 226° |
| 2026-05-01 14:22 | 32.69294 | -16.77861 | 195 ft | 14 kts | 249° |
| 2026-05-01 14:22 | 32.69287 | -16.78006 | 185 ft | 19 kts | 269° |
| 2026-05-01 14:22 | 32.69232 | -16.78099 | 181 ft | 13 kts | 229° |
| 2026-05-01 14:22 | 32.69153 | -16.78191 | 177 ft | 17 kts | 223° |
| 2026-05-01 14:23 | 32.69060 | -16.78296 | 175 ft | 19 kts | 223° |
| 2026-05-01 14:23 | 32.68974 | -16.78391 | 174 ft | 12 kts | 212° |
| 2026-05-01 14:23 | 32.68895 | -16.78420 | 174 ft | 8 kts | 216° |
| 2026-05-01 14:23 | 32.68903 | -16.78467 | 174 ft | 5 kts | 337° |
| 2026-05-01 14:24 | 32.68930 | -16.78451 | 174 ft | 3 kts | 45° |
| 2026-05-01 14:24 | 32.68932 | -16.78449 | 174 ft | 0 kts | 45° |
| 2026-05-01 14:24 | 32.69011 | -16.78355 | 174 ft | 40 kts | 45° |
| 2026-05-01 14:25 | 32.69418 | -16.77879 | 193 ft | 120 kts | 46° |
| 2026-05-01 14:25 | 32.70154 | -16.77003 | 455 ft | 166 kts | 45° |
| 2026-05-01 14:25 | 32.70932 | -16.76063 | 1387 ft | 163 kts | 44° |
| 2026-05-01 14:25 | 32.71784 | -16.75173 | 2194 ft | 171 kts | 30° |
| 2026-05-01 14:26 | 32.72784 | -16.74417 | 2766 ft | 177 kts | 57° |
| 2026-05-01 14:26 | 32.72396 | -16.71666 | 3734 ft | 190 kts | 134° |
| 2026-05-01 14:26 | 32.71322 | -16.70759 | 3804 ft | 192 kts | 159° |
| 2026-05-01 14:27 | 32.70053 | -16.70191 | 3480 ft | 202 kts | 163° |
| 2026-05-01 14:27 | 32.68671 | -16.69605 | 3114 ft | 225 kts | 161° |
| 2026-05-01 14:27 | 32.67078 | -16.68862 | 3014 ft | 258 kts | 159° |
| 2026-05-01 14:28 | 32.63717 | -16.67123 | 3013 ft | 264 kts | 157° |
| 2026-05-01 14:28 | 32.62005 | -16.66383 | 3001 ft | 262 kts | 173° |
| 2026-05-01 14:28 | 32.60169 | -16.66346 | 3015 ft | 260 kts | 184° |
| 2026-05-01 14:28 | 32.58369 | -16.66490 | 3015 ft | 260 kts | 186° |
| 2026-05-01 14:29 | 32.56566 | -16.66660 | 3015 ft | 260 kts | 186° |
| 2026-05-01 14:29 | 32.54769 | -16.66895 | 3008 ft | 259 kts | 195° |
| 2026-05-01 14:30 | 32.49812 | -16.69366 | 3012 ft | 257 kts | 206° |
| 2026-05-01 14:30 | 32.48194 | -16.70272 | 3010 ft | 257 kts | 210° |
| 2026-05-01 14:30 | 32.46775 | -16.71533 | 3009 ft | 256 kts | 223° |
| 2026-05-01 14:31 | 32.44234 | -16.74494 | 3008 ft | 255 kts | 226° |
| 2026-05-01 14:31 | 32.42987 | -16.75988 | 3008 ft | 255 kts | 227° |
| 2026-05-01 14:31 | 32.42020 | -16.77713 | 2985 ft | 250 kts | 254° |
| 2026-05-01 14:31 | 32.41997 | -16.79705 | 2991 ft | 240 kts | 287° |
| 2026-05-01 14:32 | 32.42836 | -16.81333 | 3005 ft | 237 kts | 314° |
| 2026-05-01 14:32 | 32.44199 | -16.82435 | 3006 ft | 241 kts | 336° |
| 2026-05-01 14:32 | 32.45835 | -16.82825 | 3000 ft | 234 kts | 360° |
| 2026-05-01 14:32 | 32.47396 | -16.82504 | 3004 ft | 227 kts | 14° |
| 2026-05-01 14:33 | 32.48932 | -16.81962 | 3007 ft | 229 kts | 15° |
| 2026-05-01 14:33 | 32.50450 | -16.81402 | 2944 ft | 226 kts | 15° |
| 2026-05-01 14:33 | 32.51953 | -16.80859 | 2746 ft | 227 kts | 15° |
| 2026-05-01 14:33 | 32.53457 | -16.80329 | 2585 ft | 225 kts | 14° |
| 2026-05-01 14:34 | 32.54991 | -16.80042 | 2427 ft | 222 kts | 360° |
| 2026-05-01 14:34 | 32.56529 | -16.80150 | 2275 ft | 220 kts | 354° |
| 2026-05-01 14:34 | 32.58048 | -16.80273 | 2169 ft | 215 kts | 351° |
| 2026-05-01 14:34 | 32.59381 | -16.80972 | 2041 ft | 211 kts | 316° |
| 2026-05-01 14:35 | 32.60090 | -16.82437 | 2012 ft | 203 kts | 279° |
| 2026-05-01 14:35 | 32.59907 | -16.84029 | 2003 ft | 193 kts | 240° |
| 2026-05-01 14:35 | 32.58975 | -16.85071 | 2013 ft | 189 kts | 201° |
| 2026-05-01 14:35 | 32.57708 | -16.85508 | 2031 ft | 189 kts | 190° |
| 2026-05-01 14:36 | 32.56418 | -16.85771 | 2022 ft | 188 kts | 187° |
| 2026-05-01 14:36 | 32.55111 | -16.86003 | 2018 ft | 188 kts | 187° |
| 2026-05-01 14:36 | 32.53817 | -16.86225 | 2014 ft | 189 kts | 187° |
| 2026-05-01 14:36 | 32.52499 | -16.86447 | 2011 ft | 189 kts | 187° |
| 2026-05-01 14:37 | 32.51211 | -16.86666 | 2010 ft | 188 kts | 187° |
| 2026-05-01 14:37 | 32.49912 | -16.86886 | 2008 ft | 188 kts | 187° |
| 2026-05-01 14:37 | 32.48608 | -16.86923 | 1992 ft | 187 kts | 160° |
| 2026-05-01 14:37 | 32.47564 | -16.86074 | 2003 ft | 184 kts | 122° |
| 2026-05-01 14:38 | 32.47223 | -16.84646 | 2008 ft | 182 kts | 79° |
| 2026-05-01 14:38 | 32.47756 | -16.83336 | 2015 ft | 181 kts | 40° |
| 2026-05-01 14:38 | 32.48860 | -16.82652 | 2027 ft | 181 kts | 19° |
| 2026-05-01 14:38 | 32.50062 | -16.82173 | 2018 ft | 181 kts | 19° |
| 2026-05-01 14:39 | 32.51262 | -16.81699 | 2012 ft | 181 kts | 19° |
| 2026-05-01 14:39 | 32.52463 | -16.81215 | 2011 ft | 181 kts | 19° |
| 2026-05-01 14:39 | 32.53645 | -16.80729 | 2010 ft | 181 kts | 19° |
| 2026-05-01 14:39 | 32.54845 | -16.80232 | 2012 ft | 181 kts | 19° |
| 2026-05-01 14:40 | 32.56033 | -16.79739 | 2013 ft | 181 kts | 20° |
| 2026-05-01 14:40 | 32.57229 | -16.79240 | 2012 ft | 181 kts | 20° |
| 2026-05-01 14:40 | 32.58427 | -16.78739 | 2013 ft | 181 kts | 20° |
| 2026-05-01 14:40 | 32.59628 | -16.78269 | 2010 ft | 181 kts | 9° |
| 2026-05-01 14:41 | 32.60849 | -16.78484 | 2006 ft | 184 kts | 328° |
| 2026-05-01 14:41 | 32.61674 | -16.79619 | 2015 ft | 186 kts | 287° |
| 2026-05-01 14:41 | 32.61758 | -16.81142 | 2039 ft | 185 kts | 263° |
| 2026-05-01 14:41 | 32.61375 | -16.82517 | 2018 ft | 174 kts | 231° |
| 2026-05-01 14:42 | 32.60504 | -16.83503 | 2027 ft | 174 kts | 218° |
| 2026-05-01 14:42 | 32.59526 | -16.84375 | 2025 ft | 174 kts | 214° |
| 2026-05-01 14:42 | 32.58404 | -16.84798 | 1999 ft | 172 kts | 168° |
| 2026-05-01 14:42 | 32.57445 | -16.84048 | 2013 ft | 170 kts | 119° |
| 2026-05-01 14:43 | 32.57168 | -16.82727 | 2021 ft | 167 kts | 82° |
| 2026-05-01 14:43 | 32.57630 | -16.81498 | 2019 ft | 165 kts | 46° |
| 2026-05-01 14:43 | 32.58470 | -16.80539 | 2026 ft | 166 kts | 43° |
| 2026-05-01 14:43 | 32.59314 | -16.79611 | 2019 ft | 166 kts | 43° |
| 2026-05-01 14:44 | 32.60159 | -16.78665 | 2015 ft | 166 kts | 43° |
| 2026-05-01 14:44 | 32.61825 | -16.76774 | 2013 ft | 166 kts | 43° |
| 2026-05-01 14:44 | 32.62693 | -16.75884 | 2013 ft | 165 kts | 38° |
| 2026-05-01 14:45 | 32.63616 | -16.75050 | 2012 ft | 166 kts | 37° |
| 2026-05-01 14:45 | 32.65486 | -16.73412 | 2014 ft | 166 kts | 36° |
| 2026-05-01 14:45 | 32.66410 | -16.72609 | 2013 ft | 166 kts | 36° |
| 2026-05-01 14:46 | 32.67354 | -16.71787 | 2013 ft | 165 kts | 36° |
| 2026-05-01 14:46 | 32.69218 | -16.70160 | 2014 ft | 166 kts | 36° |
| 2026-05-01 14:46 | 32.70139 | -16.69354 | 2014 ft | 166 kts | 36° |
| 2026-05-01 14:47 | 32.71080 | -16.68530 | 2014 ft | 165 kts | 36° |
| 2026-05-01 14:47 | 32.71996 | -16.67726 | 2013 ft | 165 kts | 36° |
| 2026-05-01 14:47 | 32.72936 | -16.66901 | 2013 ft | 166 kts | 36° |
| 2026-05-01 14:48 | 32.74789 | -16.65280 | 2013 ft | 165 kts | 36° |
| 2026-05-01 14:48 | 32.75725 | -16.64463 | 2014 ft | 165 kts | 36° |
| 2026-05-01 14:48 | 32.77680 | -16.63085 | 2003 ft | 166 kts | 7° |
| 2026-05-01 14:49 | 32.79907 | -16.63615 | 1995 ft | 169 kts | 311° |
| 2026-05-01 14:49 | 32.79783 | -16.66195 | 2017 ft | 174 kts | 225° |
| 2026-05-01 14:50 | 32.78566 | -16.67462 | 2024 ft | 174 kts | 219° |
| 2026-05-01 14:50 | 32.76129 | -16.70015 | 1769 ft | 174 kts | 223° |
| 2026-05-01 14:51 | 32.75264 | -16.71019 | 1512 ft | 170 kts | 224° |
| 2026-05-01 14:51 | 32.73630 | -16.72928 | 1063 ft | 160 kts | 224° |
| 2026-05-01 14:52 | 32.72098 | -16.74737 | 645 ft | 150 kts | 225° |
| 2026-05-01 14:52 | 32.71365 | -16.75600 | 456 ft | 148 kts | 225° |
| 2026-05-01 14:52 | 32.69927 | -16.77283 | 218 ft | 141 kts | 224° |
| 2026-05-01 14:53 | 32.69173 | -16.78171 | 719 ft | 157 kts | 225° |
| 2026-05-01 14:53 | 32.68385 | -16.79054 | 1455 ft | 162 kts | 221° |
| 2026-05-01 14:53 | 32.67539 | -16.79922 | 2256 ft | 161 kts | 220° |
| 2026-05-01 14:53 | 32.66709 | -16.80696 | 3015 ft | 150 kts | 217° |
| 2026-05-01 14:54 | 32.65693 | -16.81109 | 3439 ft | 168 kts | 187° |
| 2026-05-01 14:54 | 32.64456 | -16.81129 | 3841 ft | 187 kts | 182° |
| 2026-05-01 14:54 | 32.63051 | -16.81140 | 4007 ft | 214 kts | 184° |
| 2026-05-01 14:54 | 32.61550 | -16.81213 | 3997 ft | 219 kts | 185° |
| 2026-05-01 14:55 | 32.60013 | -16.81338 | 4004 ft | 220 kts | 187° |
| 2026-05-01 14:55 | 32.58498 | -16.81491 | 4005 ft | 220 kts | 187° |
| 2026-05-01 14:55 | 32.56968 | -16.81662 | 4005 ft | 220 kts | 187° |
| 2026-05-01 14:55 | 32.55443 | -16.81843 | 4004 ft | 220 kts | 188° |
| 2026-05-01 14:56 | 32.53921 | -16.82026 | 4003 ft | 219 kts | 188° |
| 2026-05-01 14:56 | 32.52383 | -16.82215 | 4001 ft | 219 kts | 188° |
| 2026-05-01 14:56 | 32.50858 | -16.82403 | 4000 ft | 219 kts | 188° |
| 2026-05-01 14:56 | 32.49332 | -16.82591 | 3999 ft | 219 kts | 188° |
| 2026-05-01 14:57 | 32.47814 | -16.82778 | 3999 ft | 219 kts | 188° |
| 2026-05-01 14:57 | 32.44804 | -16.83203 | 3664 ft | 217 kts | 197° |
| 2026-05-01 14:57 | 32.43505 | -16.84025 | 3318 ft | 218 kts | 234° |
| 2026-05-01 14:58 | 32.42965 | -16.85700 | 3019 ft | 221 kts | 259° |
| 2026-05-01 14:58 | 32.42667 | -16.87467 | 2887 ft | 218 kts | 256° |
| 2026-05-01 14:58 | 32.41998 | -16.89044 | 2702 ft | 217 kts | 225° |
| 2026-05-01 14:58 | 32.40717 | -16.89966 | 2503 ft | 218 kts | 204° |
| 2026-05-01 14:59 | 32.39428 | -16.90930 | 2263 ft | 219 kts | 227° |
| 2026-05-01 14:59 | 32.38370 | -16.92225 | 2053 ft | 221 kts | 222° |
| 2026-05-01 14:59 | 32.37056 | -16.93143 | 2004 ft | 222 kts | 191° |
| 2026-05-01 14:59 | 32.35524 | -16.93062 | 2007 ft | 222 kts | 157° |
| 2026-05-01 15:00 | 32.33707 | -16.90417 | 2007 ft | 217 kts | 90° |
| 2026-05-01 15:00 | 32.34051 | -16.88699 | 2009 ft | 216 kts | 57° |
| 2026-05-01 15:00 | 32.35131 | -16.87497 | 2009 ft | 216 kts | 25° |
| 2026-05-01 15:01 | 32.36541 | -16.86870 | 2012 ft | 217 kts | 19° |
| 2026-05-01 15:01 | 32.37966 | -16.86293 | 2009 ft | 216 kts | 19° |
| 2026-05-01 15:01 | 32.39391 | -16.85705 | 2008 ft | 216 kts | 19° |
| 2026-05-01 15:01 | 32.40802 | -16.85113 | 2006 ft | 216 kts | 20° |
| 2026-05-01 15:02 | 32.42224 | -16.84507 | 2007 ft | 216 kts | 20° |
| 2026-05-01 15:02 | 32.42699 | -16.84304 | 2017 ft | 217 kts | 20° |
| 2026-05-01 15:02 | 32.45120 | -16.83257 | 2677 ft | 225 kts | 19° |
| 2026-05-01 15:02 | 32.46607 | -16.82722 | 2955 ft | 226 kts | 1° |
| 2026-05-01 15:03 | 32.48090 | -16.83157 | 3001 ft | 220 kts | 320° |
| 2026-05-01 15:03 | 32.49010 | -16.84547 | 3009 ft | 216 kts | 288° |
| 2026-05-01 15:03 | 32.49197 | -16.86284 | 3010 ft | 215 kts | 260° |
| 2026-05-01 15:03 | 32.48631 | -16.87891 | 3008 ft | 215 kts | 231° |
| 2026-05-01 15:04 | 32.47440 | -16.88948 | 3008 ft | 218 kts | 202° |
| 2026-05-01 15:04 | 32.45975 | -16.89520 | 3013 ft | 219 kts | 199° |
| 2026-05-01 15:04 | 32.44540 | -16.90050 | 3009 ft | 218 kts | 199° |
| 2026-05-01 15:04 | 32.43070 | -16.90604 | 3009 ft | 218 kts | 199° |
| 2026-05-01 15:05 | 32.41628 | -16.91157 | 3008 ft | 218 kts | 199° |
| 2026-05-01 15:05 | 32.40124 | -16.91443 | 2997 ft | 222 kts | 173° |
| 2026-05-01 15:05 | 32.38733 | -16.90710 | 3003 ft | 227 kts | 138° |
| 2026-05-01 15:05 | 32.37894 | -16.89143 | 3006 ft | 230 kts | 104° |
| 2026-05-01 15:06 | 32.37938 | -16.87258 | 3007 ft | 231 kts | 69° |
| 2026-05-01 15:06 | 32.38850 | -16.85744 | 3008 ft | 230 kts | 34° |
| 2026-05-01 15:06 | 32.40295 | -16.84980 | 3016 ft | 227 kts | 15° |
| 2026-05-01 15:06 | 32.41817 | -16.84439 | 3011 ft | 227 kts | 14° |
| 2026-05-01 15:07 | 32.43338 | -16.83892 | 3008 ft | 228 kts | 15° |
| 2026-05-01 15:07 | 32.44849 | -16.83330 | 3007 ft | 227 kts | 15° |
| 2026-05-01 15:07 | 32.46376 | -16.82798 | 3003 ft | 226 kts | 5° |
| 2026-05-01 15:07 | 32.47872 | -16.83122 | 2995 ft | 220 kts | 324° |
| 2026-05-01 15:08 | 32.48888 | -16.84429 | 3005 ft | 216 kts | 292° |
| 2026-05-01 15:08 | 32.49174 | -16.86142 | 3007 ft | 214 kts | 263° |
| 2026-05-01 15:08 | 32.48687 | -16.87768 | 3007 ft | 215 kts | 233° |
| 2026-05-01 15:08 | 32.47540 | -16.88889 | 3009 ft | 218 kts | 204° |
| 2026-05-01 15:09 | 32.46102 | -16.89468 | 3013 ft | 218 kts | 199° |
| 2026-05-01 15:09 | 32.44640 | -16.90009 | 3010 ft | 218 kts | 199° |
| 2026-05-01 15:09 | 32.43187 | -16.90557 | 3009 ft | 218 kts | 199° |
| 2026-05-01 15:09 | 32.41748 | -16.91109 | 3009 ft | 218 kts | 200° |
| 2026-05-01 15:10 | 32.40269 | -16.91455 | 2997 ft | 221 kts | 175° |
| 2026-05-01 15:10 | 32.37941 | -16.89271 | 3005 ft | 230 kts | 107° |
| 2026-05-01 15:10 | 32.37910 | -16.87397 | 3007 ft | 231 kts | 71° |
| 2026-05-01 15:11 | 32.38768 | -16.85831 | 3008 ft | 229 kts | 36° |
| 2026-05-01 15:11 | 32.40227 | -16.85004 | 3057 ft | 227 kts | 15° |
| 2026-05-01 15:11 | 32.41607 | -16.84506 | 3033 ft | 226 kts | 14° |
| 2026-05-01 15:12 | 32.43099 | -16.83976 | 3018 ft | 226 kts | 14° |
| 2026-05-01 15:12 | 32.46114 | -16.82865 | 3010 ft | 225 kts | 10° |
| 2026-05-01 15:12 | 32.47638 | -16.82992 | 2992 ft | 219 kts | 330° |
| 2026-05-01 15:13 | 32.48822 | -16.87496 | 2997 ft | 212 kts | 239° |
| 2026-05-01 15:14 | 32.46388 | -16.89356 | 3009 ft | 216 kts | 200° |
| 2026-05-01 15:14 | 32.44949 | -16.89892 | 3006 ft | 215 kts | 200° |
| 2026-05-01 15:14 | 32.42087 | -16.90976 | 3005 ft | 216 kts | 200° |
| 2026-05-01 15:15 | 32.39158 | -16.91045 | 2994 ft | 225 kts | 150° |
| 2026-05-01 15:15 | 32.37820 | -16.87863 | 2999 ft | 231 kts | 80° |
| 2026-05-01 15:16 | 32.39787 | -16.85162 | 3008 ft | 226 kts | 16° |
| 2026-05-01 15:16 | 32.42813 | -16.84076 | 2999 ft | 226 kts | 14° |
| 2026-05-01 15:17 | 32.45832 | -16.82958 | 2997 ft | 226 kts | 13° |
| 2026-05-01 15:18 | 32.49157 | -16.85470 | 2994 ft | 212 kts | 274° |
| 2026-05-01 15:18 | 32.48956 | -16.87191 | 2997 ft | 211 kts | 245° |
| 2026-05-01 15:19 | 32.45261 | -16.89791 | 3006 ft | 215 kts | 200° |
| 2026-05-01 15:19 | 32.42417 | -16.90891 | 3003 ft | 215 kts | 200° |
| 2026-05-01 15:19 | 32.40973 | -16.91402 | 3003 ft | 216 kts | 192° |
| 2026-05-01 15:20 | 32.38281 | -16.90080 | 2996 ft | 228 kts | 123° |
| 2026-05-01 15:20 | 32.37823 | -16.88292 | 2997 ft | 231 kts | 88° |
| 2026-05-01 15:20 | 32.38291 | -16.86516 | 3000 ft | 230 kts | 51° |
| 2026-05-01 15:21 | 32.39545 | -16.85389 | 3006 ft | 226 kts | 18° |
| 2026-05-01 15:21 | 32.41032 | -16.84797 | 3004 ft | 226 kts | 15° |
| 2026-05-01 15:21 | 32.42519 | -16.84242 | 2999 ft | 226 kts | 15° |
| 2026-05-01 15:21 | 32.44026 | -16.83665 | 2998 ft | 226 kts | 15° |
| 2026-05-01 15:22 | 32.47051 | -16.82761 | 2980 ft | 221 kts | 346° |
| 2026-05-01 15:22 | 32.48381 | -16.83540 | 2991 ft | 215 kts | 311° |
| 2026-05-01 15:22 | 32.49126 | -16.85032 | 2993 ft | 212 kts | 281° |
| 2026-05-01 15:23 | 32.49109 | -16.86758 | 2997 ft | 210 kts | 251° |
| 2026-05-01 15:23 | 32.48339 | -16.88222 | 2998 ft | 212 kts | 222° |
| 2026-05-01 15:23 | 32.47027 | -16.89062 | 3007 ft | 215 kts | 202° |
| 2026-05-01 15:23 | 32.45607 | -16.89669 | 3007 ft | 215 kts | 201° |
| 2026-05-01 15:24 | 32.44196 | -16.90264 | 3003 ft | 215 kts | 202° |
| 2026-05-01 15:24 | 32.42777 | -16.90871 | 3003 ft | 215 kts | 202° |
| 2026-05-01 15:24 | 32.41365 | -16.91467 | 3004 ft | 215 kts | 197° |
| 2026-05-01 15:24 | 32.39868 | -16.91481 | 2996 ft | 222 kts | 163° |
| 2026-05-01 15:25 | 32.38596 | -16.90489 | 2996 ft | 227 kts | 129° |
| 2026-05-01 15:25 | 32.37986 | -16.88763 | 2996 ft | 230 kts | 93° |
| 2026-05-01 15:25 | 32.38339 | -16.86942 | 2999 ft | 230 kts | 55° |
| 2026-05-01 15:25 | 32.39507 | -16.85729 | 3004 ft | 226 kts | 21° |
| 2026-05-01 15:26 | 32.40979 | -16.85065 | 3004 ft | 226 kts | 17° |
| 2026-05-01 15:26 | 32.42477 | -16.84430 | 3000 ft | 227 kts | 17° |
| 2026-05-01 15:26 | 32.43950 | -16.83787 | 2997 ft | 224 kts | 18° |
| 2026-05-01 15:26 | 32.45386 | -16.83142 | 2986 ft | 214 kts | 19° |
| 2026-05-01 15:27 | 32.46740 | -16.82543 | 2983 ft | 203 kts | 17° |
| 2026-05-01 15:27 | 32.48038 | -16.81988 | 2979 ft | 191 kts | 17° |
| 2026-05-01 15:27 | 32.49278 | -16.81462 | 2988 ft | 190 kts | 17° |
| 2026-05-01 15:28 | 32.51780 | -16.80515 | 2745 ft | 187 kts | 7° |
| 2026-05-01 15:28 | 32.53058 | -16.80337 | 2555 ft | 186 kts | 358° |
| 2026-05-01 15:28 | 32.54364 | -16.80319 | 2373 ft | 185 kts | 356° |
| 2026-05-01 15:29 | 32.56925 | -16.80335 | 2034 ft | 183 kts | 356° |
| 2026-05-01 15:29 | 32.58205 | -16.80340 | 2006 ft | 184 kts | 356° |
| 2026-05-01 15:29 | 32.60681 | -16.80342 | 1900 ft | 172 kts | 357° |
| 2026-05-01 15:30 | 32.62684 | -16.80342 | 1512 ft | 167 kts | 357° |
| 2026-05-01 15:31 | 32.67266 | -16.79981 | 568 ft | 143 kts | 24° |
| 2026-05-01 15:31 | 32.68837 | -16.78554 | 245 ft | 143 kts | 44° |
| 2026-05-01 15:32 | 32.70048 | -16.77142 | 213 ft | 79 kts | 44° |
| 2026-05-01 15:32 | 32.70393 | -16.76767 | 213 ft | 11 kts | 96° |
| 2026-05-01 15:33 | 32.70295 | -16.76853 | 213 ft | 13 kts | 226° |
| 2026-05-01 15:34 | 32.69956 | -16.77177 | 213 ft | 18 kts | 179° |